METAR Data
IDs: Format: Raw Decoded Include TAF

Data at: 2300 UTC 26 Feb 2020

KBNA 262253Z 30011G20KT 9SM -SN BKN025 BKN033 OVC042 04/M02 A3007 RMK AO2 SNB46 SLP184 P0000 T00391022
KBNA 262153Z 30012G19KT 10SM BKN028 OVC037 04/M02 A3004 RMK AO2 RAB02E12 SLP174 P0000 T00441022
KBNA 262053Z 30012G24KT 10SM OVC027 05/M02 A3001 RMK AO2 RAE1959 SLP162 P0000 60000 T00501017 53007